Time;durP1;ratioP1;P1;durP2;ratioP2;P2;SDS_P1;SDS_P2;PMS_P1;PMS_P2;Temp;Humidity;BMP_temperature;BMP_pressure;BME280_temperature;BME280_humidity;BME280_pressure;Samples;Min_cycle;Max_cycle;Signal;HPM_P1;HPM_P2
2021/08/22 00:02:04;;;;;;;19.15;17.20;;;;;;;;;;5103435;27;20048;-83
2021/08/22 00:04:30;;;;;;;21.42;18.00;;;;;;;;;;5072052;28;20523;-82
2021/08/22 00:06:57;;;;;;;18.70;16.60;;;;;;;;;;5072739;28;20036;-83
2021/08/22 00:09:23;;;;;;;19.40;17.15;;;;;;;;;;5071924;28;20045;-83
2021/08/22 00:11:50;;;;;;;19.48;17.00;;;;;;;;;;5087118;28;20044;-81
2021/08/22 00:14:17;;;;;;;19.23;17.20;;;;;;;;;;5073019;28;20041;-82
2021/08/22 00:16:43;;;;;;;20.05;17.85;;;;;;;;;;5070957;28;20060;-83
2021/08/22 00:19:09;;;;;;;20.52;18.42;;;;;;;;;;5073605;28;20123;-83
2021/08/22 00:21:35;;;;;;;20.80;18.70;;;;;;;;;;5070951;28;20503;-84
2021/08/22 00:24:01;;;;;;;25.45;18.65;;;;;;;;;;5072613;28;20495;-84
2021/08/22 00:26:28;;;;;;;21.55;19.30;;;;;;;;;;5071767;28;20056;-77
2021/08/22 00:28:54;;;;;;;24.08;20.40;;;;;;;;;;5072623;28;20044;-83
2021/08/22 00:31:20;;;;;;;23.02;18.88;;;;;;;;;;5072316;28;20052;-83
2021/08/22 00:33:46;;;;;;;22.10;19.75;;;;;;;;;;5070799;28;20124;-83
2021/08/22 00:36:13;;;;;;;22.15;19.83;;;;;;;;;;5072829;28;20041;-83
2021/08/22 00:38:39;;;;;;;20.65;18.60;;;;;;;;;;5070832;28;20147;-83
2021/08/22 00:41:05;;;;;;;21.55;19.35;;;;;;;;;;5083426;28;20375;-83
2021/08/22 00:43:31;;;;;;;22.77;19.63;;;;;;;;;;5079312;28;20055;-83
2021/08/22 00:45:58;;;;;;;25.27;20.83;;;;;;;;;;5078166;28;20041;-83
2021/08/22 00:48:25;;;;;;;22.88;20.23;;;;;;;;;;5107382;28;20135;-82
2021/08/22 00:50:52;;;;;;;25.00;20.58;;;;;;;;;;5078139;28;20051;-83
2021/08/22 00:53:18;;;;;;;23.17;20.65;;;;;;;;;;5075479;28;20111;-83
2021/08/22 00:55:45;;;;;;;24.15;21.48;;;;;;;;;;5075456;28;20045;-83
2021/08/22 00:58:13;;;;;;;24.15;21.55;;;;;;;;;;5080105;28;20476;-83
2021/08/22 01:00:41;;;;;;;23.77;20.80;;;;;;;;;;5074910;28;20248;-84
2021/08/22 01:03:08;;;;;;;22.67;19.85;;;;;;;;;;5076232;28;20499;-84
2021/08/22 01:05:40;;;;;;;23.50;20.58;;;;;;;;;;5076174;28;20497;-83
2021/08/22 01:08:06;;;;;;;23.13;20.77;;;;;;;;;;5075933;28;20043;-83
2021/08/22 01:10:33;;;;;;;25.33;21.13;;;;;;;;;;5075613;28;20478;-83
2021/08/22 01:13:04;;;;;;;23.95;21.35;;;;;;;;;;5076651;28;20036;-83
2021/08/22 01:15:32;;;;;;;26.00;21.00;;;;;;;;;;5112877;27;20434;-83
2021/08/22 01:18:03;;;;;;;23.17;20.75;;;;;;;;;;5077434;28;20129;-84
2021/08/22 01:20:38;;;;;;;24.05;21.30;;;;;;;;;;5076776;28;20044;-83
2021/08/22 01:23:06;;;;;;;24.90;22.23;;;;;;;;;;5076400;28;20476;-83
2021/08/22 01:25:32;;;;;;;26.55;21.48;;;;;;;;;;5076068;28;20044;-83
2021/08/22 01:27:59;;;;;;;28.95;23.48;;;;;;;;;;5076192;28;20048;-84
2021/08/22 01:30:26;;;;;;;24.95;22.25;;;;;;;;;;5075693;28;20052;-83
2021/08/22 01:32:56;;;;;;;28.58;23.15;;;;;;;;;;5074502;28;20097;-83
2021/08/22 01:35:23;;;;;;;25.23;21.42;;;;;;;;;;5075415;28;20472;-82
2021/08/22 01:37:51;;;;;;;27.13;23.30;;;;;;;;;;5107591;27;20048;-84
2021/08/22 01:40:18;;;;;;;25.77;21.40;;;;;;;;;;5075634;28;20052;-83
2021/08/22 01:42:46;;;;;;;27.98;22.17;;;;;;;;;;5074078;28;20056;-84
2021/08/22 01:45:14;;;;;;;25.85;22.40;;;;;;;;;;5108410;27;20046;-82
2021/08/22 01:47:41;;;;;;;26.40;23.45;;;;;;;;;;5077581;28;20547;-83
2021/08/22 01:50:07;;;;;;;27.17;22.35;;;;;;;;;;5074917;28;20041;-84
2021/08/22 01:52:34;;;;;;;26.15;22.17;;;;;;;;;;5075409;28;20480;-83
2021/08/22 01:55:02;;;;;;;24.65;21.90;;;;;;;;;;5074565;28;20044;-84
2021/08/22 01:57:29;;;;;;;26.15;22.48;;;;;;;;;;5074892;28;20064;-83
2021/08/22 01:59:55;;;;;;;28.27;23.20;;;;;;;;;;5088616;27;20079;-83
2021/08/22 02:02:21;;;;;;;27.88;24.95;;;;;;;;;;5074580;28;20040;-81
2021/08/22 02:04:48;;;;;;;28.73;23.98;;;;;;;;;;5074083;28;20052;-83
2021/08/22 02:07:16;;;;;;;28.27;24.70;;;;;;;;;;5074304;28;20041;-83
2021/08/22 02:09:58;;;;;;;28.88;25.80;;;;;;;;;;5074418;28;20395;-84
2021/08/22 02:12:25;;;;;;;30.42;27.15;;;;;;;;;;5106651;27;20040;-83
2021/08/22 02:14:59;;;;;;;32.53;28.38;;;;;;;;;;5073891;28;20047;-82
2021/08/22 02:17:27;;;;;;;29.55;26.45;;;;;;;;;;5074513;28;20476;-84
2021/08/22 02:19:54;;;;;;;29.58;26.30;;;;;;;;;;5074354;28;20040;-82
2021/08/22 02:22:21;;;;;;;29.98;26.48;;;;;;;;;;5073740;28;20075;-83
2021/08/22 02:24:47;;;;;;;31.70;28.40;;;;;;;;;;5073080;28;20040;-84
2021/08/22 02:27:13;;;;;;;29.25;26.23;;;;;;;;;;5106005;27;20048;-83
2021/08/22 02:29:47;;;;;;;29.02;25.60;;;;;;;;;;5072849;28;20150;-82
2021/08/22 02:32:14;;;;;;;30.20;26.65;;;;;;;;;;5073784;28;20043;-83
2021/08/22 02:34:40;;;;;;;35.70;30.40;;;;;;;;;;5073586;28;20059;-79
2021/08/22 02:37:06;;;;;;;35.08;29.65;;;;;;;;;;5073625;28;20041;-84
2021/08/22 02:39:32;;;;;;;33.47;30.05;;;;;;;;;;5073821;28;20062;-84
2021/08/22 02:41:58;;;;;;;34.70;28.63;;;;;;;;;;5072907;28;20060;-85
2021/08/22 02:44:24;;;;;;;37.60;29.63;;;;;;;;;;5089481;28;20533;-84
2021/08/22 02:46:51;;;;;;;31.90;28.48;;;;;;;;;;5073464;28;20040;-84
2021/08/22 02:49:17;;;;;;;33.22;29.25;;;;;;;;;;5079693;28;20068;-83
2021/08/22 02:51:43;;;;;;;43.25;36.30;;;;;;;;;;5073733;28;20055;-84
2021/08/22 02:54:09;;;;;;;44.65;36.97;;;;;;;;;;5073103;28;20045;-86
2021/08/22 02:56:35;;;;;;;35.10;30.90;;;;;;;;;;5074131;28;20044;-87
2021/08/22 02:59:01;;;;;;;43.28;35.35;;;;;;;;;;5073006;28;20488;-86
2021/08/22 03:01:27;;;;;;;48.35;38.30;;;;;;;;;;5073576;28;20052;-83
2021/08/22 03:03:53;;;;;;;36.63;30.85;;;;;;;;;;5071614;28;20097;-86
2021/08/22 03:06:20;;;;;;;34.15;30.05;;;;;;;;;;5105785;27;20059;-85
2021/08/22 03:08:46;;;;;;;35.83;32.03;;;;;;;;;;5088672;27;20032;-86
2021/08/22 03:11:15;;;;;;;40.85;34.00;;;;;;;;;;5072953;28;20048;-85
2021/08/22 03:13:41;;;;;;;46.83;38.13;;;;;;;;;;5072684;28;20068;-87
2021/08/22 03:16:08;;;;;;;43.40;34.85;;;;;;;;;;5105334;27;20145;-87
2021/08/22 03:18:34;;;;;;;50.22;40.45;;;;;;;;;;5088911;27;20147;-87
2021/08/22 03:21:00;;;;;;;44.63;36.35;;;;;;;;;;5072419;28;20039;-89
2021/08/22 03:23:26;;;;;;;39.33;33.67;;;;;;;;;;5072921;28;20071;-88
2021/08/22 03:25:52;;;;;;;40.50;34.55;;;;;;;;;;5073288;28;20479;-88
2021/08/22 03:28:20;;;;;;;43.72;37.05;;;;;;;;;;5089064;27;20093;-87
2021/08/22 03:30:46;;;;;;;44.75;35.05;;;;;;;;;;5105199;27;20052;-83
2021/08/22 03:33:13;;;;;;;72.78;48.10;;;;;;;;;;5104977;27;20476;-87
2021/08/22 03:35:39;;;;;;;67.90;46.17;;;;;;;;;;5073178;28;20044;-88
2021/08/22 03:38:05;;;;;;;82.05;49.88;;;;;;;;;;5105067;27;20052;-88
2021/08/22 03:40:31;;;;;;;74.22;46.30;;;;;;;;;;5087872;28;20068;-88
2021/08/22 03:42:58;;;;;;;62.22;44.35;;;;;;;;;;5071974;28;20041;-87
2021/08/22 03:45:24;;;;;;;52.90;40.10;;;;;;;;;;5088208;28;20525;-86
2021/08/22 03:47:50;;;;;;;48.03;38.65;;;;;;;;;;5109289;27;20047;-87
2021/08/22 03:50:16;;;;;;;48.17;39.03;;;;;;;;;;5076931;28;20072;-86
2021/08/22 03:52:42;;;;;;;44.67;37.33;;;;;;;;;;5072274;28;20541;-89
2021/08/22 03:55:09;;;;;;;47.53;38.30;;;;;;;;;;5087653;28;20040;-85
2021/08/22 03:57:35;;;;;;;68.25;47.30;;;;;;;;;;5072101;28;20041;-84
2021/08/22 04:00:01;;;;;;;89.47;52.53;;;;;;;;;;5104087;27;20463;-85
2021/08/22 04:02:27;;;;;;;49.22;39.80;;;;;;;;;;5104226;27;20381;-84
2021/08/22 04:04:53;;;;;;;51.35;41.47;;;;;;;;;;5071282;28;20044;-83
2021/08/22 04:07:19;;;;;;;48.58;38.80;;;;;;;;;;5072462;28;20103;-84
2021/08/22 04:09:46;;;;;;;52.15;41.33;;;;;;;;;;5087596;28;20037;-84
2021/08/22 04:12:12;;;;;;;49.75;40.95;;;;;;;;;;5071933;28;20452;-84
2021/08/22 04:14:38;;;;;;;53.30;42.60;;;;;;;;;;5104503;28;20037;-86
2021/08/22 04:17:05;;;;;;;56.58;43.88;;;;;;;;;;5071501;28;20454;-86
2021/08/22 04:19:31;;;;;;;50.35;41.05;;;;;;;;;;5072260;28;20404;-86
2021/08/22 04:21:58;;;;;;;59.10;43.65;;;;;;;;;;5104315;27;20044;-86
2021/08/22 04:24:24;;;;;;;61.47;44.13;;;;;;;;;;5107707;27;20047;-85
2021/08/22 04:26:50;;;;;;;59.28;44.50;;;;;;;;;;5108979;27;20043;-77
2021/08/22 04:29:17;;;;;;;58.88;43.95;;;;;;;;;;5109072;27;20045;-86
2021/08/22 04:31:43;;;;;;;57.17;42.40;;;;;;;;;;5076506;28;20115;-85
2021/08/22 04:34:09;;;;;;;57.53;43.83;;;;;;;;;;5075060;28;20059;-87
2021/08/22 04:36:36;;;;;;;60.45;44.10;;;;;;;;;;5091961;27;20068;-88
2021/08/22 04:39:02;;;;;;;62.85;45.08;;;;;;;;;;5075098;28;20391;-88
2021/08/22 04:41:28;;;;;;;68.70;48.28;;;;;;;;;;5076487;28;20044;-87
2021/08/22 04:43:54;;;;;;;66.95;47.30;;;;;;;;;;5075640;28;20427;-87
2021/08/22 04:46:21;;;;;;;72.57;48.72;;;;;;;;;;5076112;28;20414;-87
2021/08/22 04:48:48;;;;;;;63.38;47.10;;;;;;;;;;5087666;28;20044;-88
2021/08/22 04:51:14;;;;;;;65.55;48.00;;;;;;;;;;5079602;28;20044;-87
2021/08/22 04:53:40;;;;;;;74.00;49.50;;;;;;;;;;5076177;28;20464;-89
2021/08/22 04:56:07;;;;;;;94.60;54.58;;;;;;;;;;5075822;28;20044;-88
2021/08/22 04:58:33;;;;;;;74.95;50.55;;;;;;;;;;5092125;28;20067;-89
2021/08/22 05:01:00;;;;;;;77.35;52.17;;;;;;;;;;5075535;28;20051;-91
2021/08/22 05:03:26;;;;;;;82.05;50.72;;;;;;;;;;5076213;28;20075;-88
2021/08/22 05:05:52;;;;;;;75.43;51.00;;;;;;;;;;5076419;28;20036;-89
2021/08/22 05:08:18;;;;;;;92.68;54.80;;;;;;;;;;5108609;27;20040;-90
2021/08/22 05:10:48;;;;;;;89.53;55.35;;;;;;;;;;5091335;28;20040;-90
2021/08/22 05:13:14;;;;;;;86.95;53.08;;;;;;;;;;5075675;28;20400;-88
2021/08/22 05:15:41;;;;;;;95.18;57.38;;;;;;;;;;5075630;28;20036;-88
2021/08/22 05:18:07;;;;;;;90.75;55.35;;;;;;;;;;5091047;28;20040;-88
2021/08/22 05:20:34;;;;;;;88.18;53.67;;;;;;;;;;5075907;28;20041;-87
2021/08/22 05:23:00;;;;;;;106.90;58.70;;;;;;;;;;5075042;28;20048;-88
2021/08/22 05:25:26;;;;;;;84.35;53.72;;;;;;;;;;5075480;28;20063;-85
2021/08/22 05:27:52;;;;;;;109.35;62.72;;;;;;;;;;5075203;28;20045;-87
2021/08/22 05:30:18;;;;;;;100.05;57.47;;;;;;;;;;5075306;28;20502;-87
2021/08/22 05:32:44;;;;;;;118.05;65.28;;;;;;;;;;5107608;27;20438;-88
2021/08/22 05:35:11;;;;;;;109.93;60.65;;;;;;;;;;5107488;27;20050;-85
2021/08/22 05:37:37;;;;;;;90.47;56.60;;;;;;;;;;5075378;28;20533;-88
2021/08/22 05:40:04;;;;;;;102.68;57.83;;;;;;;;;;5107585;27;20140;-88
2021/08/22 05:42:30;;;;;;;97.47;56.35;;;;;;;;;;5090204;28;20040;-88
2021/08/22 05:44:56;;;;;;;110.10;59.45;;;;;;;;;;5115986;27;20122;-88
2021/08/22 05:47:22;;;;;;;117.90;62.70;;;;;;;;;;5088806;28;20083;-89
2021/08/22 05:49:49;;;;;;;103.43;59.22;;;;;;;;;;5083433;28;20648;-87
2021/08/22 05:52:15;;;;;;;129.82;66.70;;;;;;;;;;5106270;28;20071;-87
2021/08/22 05:54:41;;;;;;;96.40;56.58;;;;;;;;;;5074938;28;20036;-87
2021/08/22 05:57:07;;;;;;;120.93;63.85;;;;;;;;;;5074346;28;20496;-87
2021/08/22 05:59:33;;;;;;;127.30;61.90;;;;;;;;;;5074230;28;20124;-86
2021/08/22 06:02:00;;;;;;;112.15;64.53;;;;;;;;;;5074058;28;20052;-78
2021/08/22 06:04:26;;;;;;;119.28;63.78;;;;;;;;;;5090221;27;20044;-86
2021/08/22 06:06:53;;;;;;;114.05;62.10;;;;;;;;;;5074398;28;20381;-88
2021/08/22 06:09:19;;;;;;;127.15;65.25;;;;;;;;;;5074667;28;20047;-88
2021/08/22 06:11:45;;;;;;;113.45;65.70;;;;;;;;;;5107871;27;20040;-87
2021/08/22 06:14:11;;;;;;;95.63;58.88;;;;;;;;;;5074073;28;20037;-87
2021/08/22 06:16:37;;;;;;;126.70;67.50;;;;;;;;;;5075035;28;20104;-87
2021/08/22 06:19:04;;;;;;;85.28;56.05;;;;;;;;;;5073986;28;20040;-87
2021/08/22 06:21:30;;;;;;;108.13;62.47;;;;;;;;;;5074433;28;20040;-87
2021/08/22 06:23:58;;;;;;;159.32;71.25;;;;;;;;;;5075809;28;20044;-87
2021/08/22 06:26:25;;;;;;;116.35;63.08;;;;;;;;;;5076658;28;20040;-86
2021/08/22 06:28:52;;;;;;;85.43;55.85;;;;;;;;;;5074426;28;20045;-87
2021/08/22 06:31:18;;;;;;;99.13;60.92;;;;;;;;;;5106436;27;20044;-87
2021/08/22 06:33:45;;;;;;;117.78;64.90;;;;;;;;;;5073897;28;20040;-87
2021/08/22 06:36:12;;;;;;;95.50;61.70;;;;;;;;;;5073167;28;20103;-82
2021/08/22 06:38:38;;;;;;;109.75;64.88;;;;;;;;;;5096059;28;20044;-89
2021/08/22 06:41:07;;;;;;;129.10;68.30;;;;;;;;;;5111836;27;20056;-87
2021/08/22 06:43:33;;;;;;;110.47;68.57;;;;;;;;;;5088887;28;20115;-86
2021/08/22 06:45:59;;;;;;;107.97;62.30;;;;;;;;;;5106559;27;20044;-88
2021/08/22 06:48:25;;;;;;;119.97;67.78;;;;;;;;;;5082826;28;20483;-87
2021/08/22 06:50:51;;;;;;;95.38;62.55;;;;;;;;;;5081903;28;20041;-88
2021/08/22 06:53:18;;;;;;;86.80;59.58;;;;;;;;;;5089250;27;20048;-89
2021/08/22 06:55:44;;;;;;;71.75;53.15;;;;;;;;;;5089729;27;20102;-81
2021/08/22 06:58:10;;;;;;;87.28;58.85;;;;;;;;;;5073642;28;20044;-88
2021/08/22 07:00:36;;;;;;;85.05;57.45;;;;;;;;;;5073379;28;20033;-89
2021/08/22 07:03:02;;;;;;;69.07;52.30;;;;;;;;;;5073009;28;20131;-86
2021/08/22 07:05:28;;;;;;;76.03;52.72;;;;;;;;;;5072332;28;20086;-86
2021/08/22 07:07:54;;;;;;;86.72;53.83;;;;;;;;;;5073380;28;20049;-88
2021/08/22 07:10:21;;;;;;;78.43;52.35;;;;;;;;;;5072867;28;20044;-86
2021/08/22 07:12:47;;;;;;;78.22;52.65;;;;;;;;;;5089195;28;20040;-87
2021/08/22 07:15:13;;;;;;;53.85;42.45;;;;;;;;;;5072489;28;20484;-87
2021/08/22 07:17:39;;;;;;;45.58;38.65;;;;;;;;;;5074172;28;20507;-88
2021/08/22 07:20:06;;;;;;;64.72;44.50;;;;;;;;;;5073368;28;20040;-85
2021/08/22 07:22:32;;;;;;;51.58;42.00;;;;;;;;;;5072777;28;20041;-87
2021/08/22 07:25:07;;;;;;;49.83;39.05;;;;;;;;;;5073735;28;20037;-87
2021/08/22 07:27:33;;;;;;;54.30;39.63;;;;;;;;;;5073932;28;20044;-86
2021/08/22 07:29:59;;;;;;;46.25;37.92;;;;;;;;;;5073086;28;20049;-87
2021/08/22 07:32:25;;;;;;;36.67;32.65;;;;;;;;;;5072514;28;20040;-86
2021/08/22 07:34:51;;;;;;;46.42;35.90;;;;;;;;;;5089693;28;20040;-87
2021/08/22 07:37:18;;;;;;;38.58;33.53;;;;;;;;;;5073540;28;20033;-86
2021/08/22 07:39:44;;;;;;;45.75;34.45;;;;;;;;;;5073241;28;20045;-86
2021/08/22 07:42:11;;;;;;;48.78;36.15;;;;;;;;;;5106103;27;20463;-84
2021/08/22 07:44:37;;;;;;;50.13;35.38;;;;;;;;;;5076039;28;20384;-86
2021/08/22 07:47:04;;;;;;;46.60;36.22;;;;;;;;;;5075811;28;20054;-86
2021/08/22 07:49:30;;;;;;;52.95;37.38;;;;;;;;;;5094313;28;20542;-86
2021/08/22 07:51:56;;;;;;;40.72;32.15;;;;;;;;;;5109549;27;20040;-85
2021/08/22 07:54:22;;;;;;;44.38;32.50;;;;;;;;;;5109780;27;20051;-87
2021/08/22 07:56:49;;;;;;;49.03;32.58;;;;;;;;;;5077269;28;20041;-86
2021/08/22 07:59:15;;;;;;;53.65;35.60;;;;;;;;;;5075218;28;20388;-85
2021/08/22 08:01:41;;;;;;;47.15;29.63;;;;;;;;;;5072924;28;20037;-87
2021/08/22 08:04:08;;;;;;;37.40;28.13;;;;;;;;;;5072420;28;20537;-84
2021/08/22 08:06:34;;;;;;;28.80;24.60;;;;;;;;;;5074100;28;20373;-86
2021/08/22 08:09:00;;;;;;;42.25;30.63;;;;;;;;;;5074320;28;20044;-85
2021/08/22 08:11:27;;;;;;;46.03;30.13;;;;;;;;;;5073879;28;20052;-86
2021/08/22 08:13:53;;;;;;;49.35;32.72;;;;;;;;;;5073609;28;20041;-86
2021/08/22 08:16:19;;;;;;;52.17;35.42;;;;;;;;;;5087643;28;20044;-87
2021/08/22 08:18:45;;;;;;;71.00;39.10;;;;;;;;;;5072560;28;20048;-87
2021/08/22 08:21:14;;;;;;;57.58;36.25;;;;;;;;;;5103635;27;20040;-77
2021/08/22 08:23:41;;;;;;;51.25;35.70;;;;;;;;;;5087836;28;20537;-86
2021/08/22 08:26:07;;;;;;;64.03;39.85;;;;;;;;;;5072488;28;20071;-86
2021/08/22 08:28:33;;;;;;;87.53;42.03;;;;;;;;;;5073260;28;20048;-86
2021/08/22 08:31:04;;;;;;;51.15;33.95;;;;;;;;;;5102849;27;20488;-85
2021/08/22 08:33:30;;;;;;;73.63;37.83;;;;;;;;;;5071216;28;20086;-88
2021/08/22 08:35:56;;;;;;;67.10;36.60;;;;;;;;;;5072005;28;20045;-89
2021/08/22 08:38:22;;;;;;;53.22;31.92;;;;;;;;;;5072297;28;20047;-85
2021/08/22 08:40:49;;;;;;;38.80;27.80;;;;;;;;;;5072668;28;20052;-86
2021/08/22 08:43:16;;;;;;;35.58;23.30;;;;;;;;;;5071720;28;20041;-86
2021/08/22 08:46:00;;;;;;;30.77;23.17;;;;;;;;;;5072867;28;20040;-90
2021/08/22 08:48:29;;;;;;;28.50;20.85;;;;;;;;;;5078090;28;20123;-88
2021/08/22 08:51:05;;;;;;;21.77;17.20;;;;;;;;;;5105335;27;20051;-88
2021/08/22 08:53:34;;;;;;;27.75;18.45;;;;;;;;;;5105291;27;20044;-87
2021/08/22 08:56:03;;;;;;;29.10;17.40;;;;;;;;;;5072011;28;20442;-89
2021/08/22 08:58:29;;;;;;;27.55;17.30;;;;;;;;;;5087285;28;20445;-87
2021/08/22 09:00:55;;;;;;;21.65;14.95;;;;;;;;;;5071899;28;20476;-91
2021/08/22 09:03:23;;;;;;;21.45;14.88;;;;;;;;;;5071895;28;20052;-86
2021/08/22 09:06:05;;;;;;;26.85;17.33;;;;;;;;;;5072301;28;20502;-87
2021/08/22 09:08:37;;;;;;;25.42;17.67;;;;;;;;;;5104067;27;20047;-86
2021/08/22 09:11:15;;;;;;;33.38;20.90;;;;;;;;;;5075257;28;20044;-83
2021/08/22 09:14:00;;;;;;;27.02;18.20;;;;;;;;;;5090860;27;20048;-88
2021/08/22 09:16:45;;;;;;;36.78;24.23;;;;;;;;;;5075045;28;20072;-88
2021/08/22 09:19:30;;;;;;;45.70;26.77;;;;;;;;;;5075598;28;20047;-84
2021/08/22 09:22:12;;;;;;;54.67;28.55;;;;;;;;;;5108180;27;20120;-86
2021/08/22 09:24:57;;;;;;;54.42;30.40;;;;;;;;;;5074955;28;20055;-88
2021/08/22 09:27:41;;;;;;;55.47;30.02;;;;;;;;;;5074677;28;20049;-85
2021/08/22 09:30:26;;;;;;;58.38;33.22;;;;;;;;;;5075654;28;20040;-85
2021/08/22 09:33:23;;;;;;;51.95;29.17;;;;;;;;;;5107601;27;20037;-86
2021/08/22 09:36:08;;;;;;;58.70;31.73;;;;;;;;;;5038019;28;20061;-85
2021/08/22 09:39:04;;;;;;;56.00;30.25;;;;;;;;;;5075139;28;20041;-85
2021/08/22 09:41:49;;;;;;;50.70;30.73;;;;;;;;;;5055122;28;20520;-86
2021/08/22 09:44:35;;;;;;;42.08;26.25;;;;;;;;;;5107610;27;20064;-85
2021/08/22 09:47:21;;;;;;;33.88;22.00;;;;;;;;;;5107668;27;20047;-86
2021/08/22 09:50:07;;;;;;;27.73;20.30;;;;;;;;;;5079038;28;20440;-85
2021/08/22 09:52:39;;;;;;;34.88;22.80;;;;;;;;;;5074641;28;20040;-85
2021/08/22 09:55:24;;;;;;;28.50;19.02;;;;;;;;;;5075322;28;20037;-86
2021/08/22 09:57:56;;;;;;;28.63;18.65;;;;;;;;;;5074280;28;20049;-85
2021/08/22 10:00:41;;;;;;;22.70;17.00;;;;;;;;;;5075314;28;20093;-85
2021/08/22 10:03:22;;;;;;;14.70;13.15;;;;;;;;;;5073874;28;20045;-85
2021/08/22 10:06:06;;;;;;;20.67;15.93;;;;;;;;;;5073859;28;20396;-84
2021/08/22 10:08:42;;;;;;;17.67;15.73;;;;;;;;;;5105886;27;20052;-82
2021/08/22 10:11:14;;;;;;;22.65;17.05;;;;;;;;;;5074655;28;20484;-84
2021/08/22 10:13:40;;;;;;;16.77;14.93;;;;;;;;;;5073478;28;20094;-84
2021/08/22 10:16:06;;;;;;;23.25;17.50;;;;;;;;;;5074348;28;20047;-84
2021/08/22 10:18:32;;;;;;;17.77;15.00;;;;;;;;;;5105945;27;20044;-84
2021/08/22 10:21:02;;;;;;;16.50;14.35;;;;;;;;;;5073488;28;20068;-83
2021/08/22 10:23:38;;;;;;;13.55;11.32;;;;;;;;;;5073205;28;20115;-83
2021/08/22 10:26:05;;;;;;;10.30;9.18;;;;;;;;;;5073778;28;20076;-84
2021/08/22 10:28:53;;;;;;;8.85;7.95;;;;;;;;;;5081295;28;20105;-84
2021/08/22 10:31:38;;;;;;;10.52;9.38;;;;;;;;;;5090125;27;20040;-83
2021/08/22 10:34:16;;;;;;;10.35;9.35;;;;;;;;;;5073934;28;20559;-83
2021/08/22 10:36:43;;;;;;;9.57;8.68;;;;;;;;;;5073132;28;20654;-84
2021/08/22 10:39:27;;;;;;;10.48;8.73;;;;;;;;;;5073730;28;20044;-84
2021/08/22 10:41:54;;;;;;;11.65;8.88;;;;;;;;;;5073362;28;20044;-83
2021/08/22 10:44:33;;;;;;;9.82;8.77;;;;;;;;;;5088785;27;20068;-83
2021/08/22 10:47:00;;;;;;;10.77;8.57;;;;;;;;;;5073287;28;20480;-85
2021/08/22 10:49:45;;;;;;;14.32;10.98;;;;;;;;;;5114636;27;20048;-83
2021/08/22 10:52:30;;;;;;;12.05;10.75;;;;;;;;;;5105703;27;20066;-83
2021/08/22 10:55:11;;;;;;;13.73;10.95;;;;;;;;;;5073343;28;20525;-86
2021/08/22 10:57:44;;;;;;;16.52;13.52;;;;;;;;;;5073600;28;20115;-85
2021/08/22 11:00:23;;;;;;;15.23;13.73;;;;;;;;;;5105439;27;20408;-87
2021/08/22 11:02:58;;;;;;;18.85;14.73;;;;;;;;;;5072749;28;20052;-85
2021/08/22 11:05:26;;;;;;;20.65;16.63;;;;;;;;;;5073303;28;20040;-84
2021/08/22 11:07:53;;;;;;;19.20;16.77;;;;;;;;;;5105002;27;20045;-84
2021/08/22 11:10:21;;;;;;;26.83;19.05;;;;;;;;;;5073634;28;20148;-83
2021/08/22 11:12:50;;;;;;;16.13;14.32;;;;;;;;;;5072626;28;20040;-80
2021/08/22 11:15:22;;;;;;;22.02;17.45;;;;;;;;;;5111758;27;20060;-82
2021/08/22 11:17:53;;;;;;;20.15;17.08;;;;;;;;;;5079057;28;20048;-85
2021/08/22 11:20:21;;;;;;;21.80;16.98;;;;;;;;;;5072952;28;20519;-83
2021/08/22 11:22:50;;;;;;;25.60;19.20;;;;;;;;;;5105178;27;20040;-83
2021/08/22 11:25:17;;;;;;;13.85;12.55;;;;;;;;;;5072672;28;20047;-84
2021/08/22 11:27:45;;;;;;;16.15;14.43;;;;;;;;;;5072451;28;20106;-83
2021/08/22 11:30:12;;;;;;;17.35;15.60;;;;;;;;;;5072931;28;20115;-83
2021/08/22 11:32:39;;;;;;;16.27;14.68;;;;;;;;;;5071767;28;20040;-83
2021/08/22 11:35:09;;;;;;;8.85;8.05;;;;;;;;;;5072113;28;20124;-83
2021/08/22 11:37:35;;;;;;;8.65;7.80;;;;;;;;;;5072260;28;20067;-85
2021/08/22 11:40:09;;;;;;;12.18;9.32;;;;;;;;;;5072093;28;20052;-85
2021/08/22 11:42:36;;;;;;;11.05;9.65;;;;;;;;;;5072822;28;20048;-83
2021/08/22 11:45:10;;;;;;;12.57;11.48;;;;;;;;;;5075074;28;20033;-84
2021/08/22 11:47:37;;;;;;;8.82;7.82;;;;;;;;;;5080581;28;20114;-80
2021/08/22 11:50:06;;;;;;;9.63;8.73;;;;;;;;;;5072453;28;20067;-83
2021/08/22 11:52:33;;;;;;;9.00;7.93;;;;;;;;;;5072956;28;20680;-83
2021/08/22 11:55:00;;;;;;;7.28;6.65;;;;;;;;;;5071702;28;20041;-84
2021/08/22 11:57:28;;;;;;;9.93;9.02;;;;;;;;;;5072337;28;20403;-83
2021/08/22 11:59:58;;;;;;;14.63;12.77;;;;;;;;;;5071548;28;20044;-84
2021/08/22 12:02:28;;;;;;;8.88;8.02;;;;;;;;;;5072172;28;20044;-83
2021/08/22 12:05:13;;;;;;;10.05;9.10;;;;;;;;;;5071816;28;20373;-83
2021/08/22 12:07:39;;;;;;;13.15;11.85;;;;;;;;;;5072860;28;20047;-77
2021/08/22 12:10:06;;;;;;;8.23;7.53;;;;;;;;;;5072346;28;20064;-84
2021/08/22 12:12:38;;;;;;;7.60;7.00;;;;;;;;;;5071943;28;20072;-84
2021/08/22 12:15:08;;;;;;;5.72;5.32;;;;;;;;;;5071170;28;20546;-83
2021/08/22 12:17:35;;;;;;;6.47;5.90;;;;;;;;;;5104625;27;20044;-79
2021/08/22 12:20:18;;;;;;;8.20;7.40;;;;;;;;;;5071590;28;20389;-80
2021/08/22 12:22:44;;;;;;;6.13;5.63;;;;;;;;;;5071712;28;20108;-83
2021/08/22 12:25:24;;;;;;;8.25;6.30;;;;;;;;;;5087724;28;20049;-84
2021/08/22 12:27:50;;;;;;;4.20;3.83;;;;;;;;;;5072273;28;20036;-84
2021/08/22 12:30:16;;;;;;;3.70;3.35;;;;;;;;;;5087944;28;20037;-82
2021/08/22 12:32:42;;;;;;;3.00;2.80;;;;;;;;;;5071391;28;20048;-76
2021/08/22 12:35:09;;;;;;;3.30;3.00;;;;;;;;;;5072078;28;20044;-84
2021/08/22 12:37:35;;;;;;;2.70;2.50;;;;;;;;;;5072262;28;20048;-85
2021/08/22 12:40:06;;;;;;;3.17;2.97;;;;;;;;;;5071145;28;20059;-85
2021/08/22 12:42:34;;;;;;;3.80;3.50;;;;;;;;;;5072259;28;20075;-84
2021/08/22 12:45:00;;;;;;;3.25;3.05;;;;;;;;;;5073098;28;20123;-84
2021/08/22 12:47:26;;;;;;;3.80;3.50;;;;;;;;;;5077063;28;20087;-78
2021/08/22 12:49:52;;;;;;;3.38;3.08;;;;;;;;;;5090068;28;20041;-83
2021/08/22 12:52:20;;;;;;;3.53;3.20;;;;;;;;;;5075655;28;20044;-84
2021/08/22 12:54:46;;;;;;;3.85;3.55;;;;;;;;;;5074884;28;20054;-82
2021/08/22 12:57:12;;;;;;;4.18;3.40;;;;;;;;;;5075280;28;20535;-84
2021/08/22 12:59:38;;;;;;;3.25;2.95;;;;;;;;;;5075867;28;20040;-86
2021/08/22 13:02:04;;;;;;;5.30;3.35;;;;;;;;;;5074259;28;20336;-84
2021/08/22 13:04:30;;;;;;;3.20;2.80;;;;;;;;;;5074843;28;20036;-85
2021/08/22 13:06:57;;;;;;;3.28;3.00;;;;;;;;;;5074407;28;20095;-85
2021/08/22 13:09:24;;;;;;;3.45;3.17;;;;;;;;;;5075272;28;20049;-85
2021/08/22 13:11:51;;;;;;;4.72;3.35;;;;;;;;;;5074685;28;20079;-85
2021/08/22 13:14:18;;;;;;;3.72;3.42;;;;;;;;;;5075608;28;20044;-84
2021/08/22 13:16:44;;;;;;;4.57;3.25;;;;;;;;;;5074778;28;20101;-84
2021/08/22 13:19:10;;;;;;;4.05;3.05;;;;;;;;;;5074806;28;20163;-85
2021/08/22 13:21:36;;;;;;;4.38;3.38;;;;;;;;;;5075466;28;20094;-85
2021/08/22 13:24:02;;;;;;;3.92;3.63;;;;;;;;;;5075194;28;20043;-85
2021/08/22 13:26:29;;;;;;;3.33;2.90;;;;;;;;;;5075535;28;20069;-85
2021/08/22 13:28:55;;;;;;;4.35;3.00;;;;;;;;;;5073677;28;20399;-84
2021/08/22 13:31:25;;;;;;;3.40;3.10;;;;;;;;;;5075023;28;20446;-85
2021/08/22 13:33:54;;;;;;;2.97;2.50;;;;;;;;;;5074772;28;20146;-86
2021/08/22 13:36:24;;;;;;;2.75;2.35;;;;;;;;;;5075169;28;20048;-83
2021/08/22 13:38:50;;;;;;;3.05;2.78;;;;;;;;;;5073881;28;20051;-86
2021/08/22 13:41:17;;;;;;;3.05;2.22;;;;;;;;;;5068142;28;20466;-85
2021/08/22 13:43:43;;;;;;;2.85;2.38;;;;;;;;;;5034867;28;20099;-85
2021/08/22 13:46:09;;;;;;;3.47;2.85;;;;;;;;;;5035229;28;20243;-85
2021/08/22 13:48:36;;;;;;;3.05;2.75;;;;;;;;;;5045265;28;20091;-86
2021/08/22 13:51:03;;;;;;;3.80;2.88;;;;;;;;;;5048148;28;20148;-85
2021/08/22 13:53:30;;;;;;;5.03;2.70;;;;;;;;;;5034462;28;20056;-86
2021/08/22 13:55:56;;;;;;;4.60;2.88;;;;;;;;;;5033871;28;20071;-86
2021/08/22 13:58:22;;;;;;;4.57;2.95;;;;;;;;;;5034589;28;20045;-84
2021/08/22 14:00:48;;;;;;;3.22;2.90;;;;;;;;;;5034790;28;20500;-85
2021/08/22 14:03:14;;;;;;;2.90;2.58;;;;;;;;;;5066579;28;20064;-86
2021/08/22 14:05:40;;;;;;;4.30;2.85;;;;;;;;;;5034675;28;20036;-86
2021/08/22 14:08:06;;;;;;;3.53;3.08;;;;;;;;;;5033993;28;20049;-85
2021/08/22 14:10:33;;;;;;;3.50;2.58;;;;;;;;;;5034502;28;20061;-81
2021/08/22 14:12:59;;;;;;;3.50;3.20;;;;;;;;;;5065859;28;20404;-84
2021/08/22 14:15:26;;;;;;;3.47;3.08;;;;;;;;;;5034817;28;20102;-86
2021/08/22 14:17:55;;;;;;;3.60;3.10;;;;;;;;;;5034050;28;20072;-86
2021/08/22 14:20:21;;;;;;;4.10;3.75;;;;;;;;;;5034178;28;20071;-85
2021/08/22 14:22:49;;;;;;;4.90;3.92;;;;;;;;;;5034789;28;20038;-86
2021/08/22 14:25:16;;;;;;;6.20;4.95;;;;;;;;;;5033796;28;20045;-85
2021/08/22 14:27:42;;;;;;;4.63;4.32;;;;;;;;;;5066163;28;20120;-86
2021/08/22 14:30:09;;;;;;;4.32;3.92;;;;;;;;;;5065633;28;20459;-86